Time;durP1;ratioP1;P1;durP2;ratioP2;P2;SDS_P1;SDS_P2;PMS_P1;PMS_P2;Temp;Humidity;BMP_temperature;BMP_pressure;BME280_temperature;BME280_humidity;BME280_pressure;Samples;Min_cycle;Max_cycle;Signal;HPM_P1;HPM_P2
2024/04/07 00:00:21;;;;;;;1.83;1.00;;;18.70;94.00;;;;;;4975164;28;20471;-40
2024/04/07 00:02:47;;;;;;;1.90;1.05;;;18.80;94.00;;;;;;4975334;28;20058;-40
2024/04/07 00:05:13;;;;;;;1.77;0.90;;;18.70;94.00;;;;;;4975217;28;20053;-40
2024/04/07 00:07:39;;;;;;;3.65;1.08;;;18.80;94.00;;;;;;4975177;28;20434;-40
2024/04/07 00:10:05;;;;;;;1.77;1.00;;;18.70;94.00;;;;;;4974876;28;20038;-40
2024/04/07 00:12:30;;;;;;;3.25;1.20;;;18.70;94.10;;;;;;4974673;28;20506;-40
2024/04/07 00:14:56;;;;;;;1.83;1.20;;;18.70;94.00;;;;;;4974940;28;20053;-40
2024/04/07 00:17:22;;;;;;;1.98;1.10;;;18.80;94.10;;;;;;4974843;28;20027;-40
2024/04/07 00:19:47;;;;;;;1.88;1.08;;;18.70;94.10;;;;;;4974823;28;20042;-41
2024/04/07 00:22:13;;;;;;;2.13;1.10;;;18.80;94.10;;;;;;4975117;28;20027;-40
2024/04/07 00:24:38;;;;;;;1.88;1.08;;;18.70;94.10;;;;;;4974960;28;20026;-40
2024/04/07 00:27:05;;;;;;;2.13;1.20;;;18.80;94.10;;;;;;4974796;28;20035;-40
2024/04/07 00:29:30;;;;;;;1.58;0.98;;;18.70;94.10;;;;;;4974555;28;20050;-40
2024/04/07 00:31:56;;;;;;;2.17;0.93;;;18.70;94.10;;;;;;4974519;28;20117;-42
2024/04/07 00:34:22;;;;;;;1.90;1.02;;;18.70;94.10;;;;;;4974772;28;20146;-40
2024/04/07 00:36:47;;;;;;;1.45;1.00;;;18.80;94.10;;;;;;4974484;28;20026;-40
2024/04/07 00:39:13;;;;;;;1.58;0.90;;;18.70;94.10;;;;;;4974410;28;20027;-40
2024/04/07 00:41:39;;;;;;;1.38;0.80;;;18.70;94.10;;;;;;4973983;28;20027;-41
2024/04/07 00:44:04;;;;;;;1.90;1.00;;;18.70;94.10;;;;;;4974722;28;20031;-41
2024/04/07 00:46:30;;;;;;;2.22;1.02;;;18.80;94.20;;;;;;4974397;28;20422;-40
2024/04/07 00:48:56;;;;;;;3.10;1.20;;;18.70;94.10;;;;;;4974481;28;20069;-39
2024/04/07 00:51:23;;;;;;;2.28;1.10;;;18.70;94.10;;;;;;4974478;28;20026;-40
2024/04/07 00:53:48;;;;;;;1.08;0.82;;;18.70;94.10;;;;;;4974430;28;20023;-40
2024/04/07 00:56:14;;;;;;;2.40;0.90;;;18.70;94.10;;;;;;4974368;28;20027;-40
2024/04/07 00:58:42;;;;;;;1.55;1.00;;;18.70;94.10;;;;;;4974337;28;20031;-40
2024/04/07 01:01:07;;;;;;;2.17;1.20;;;18.80;94.20;;;;;;4974170;28;20027;-41
2024/04/07 01:03:33;;;;;;;1.67;1.20;;;18.70;94.10;;;;;;4973746;28;20126;-40
2024/04/07 01:05:59;;;;;;;1.55;1.10;;;18.70;94.10;;;;;;4974402;28;20034;-40
2024/04/07 01:08:25;;;;;;;2.08;1.23;;;18.70;94.20;;;;;;4973364;28;20030;-40
2024/04/07 01:10:51;;;;;;;2.00;0.88;;;18.70;94.10;;;;;;4972767;28;20392;-40
2024/04/07 01:13:24;;;;;;;1.67;1.08;;;18.70;94.10;;;;;;4974171;28;20097;-40
2024/04/07 01:15:49;;;;;;;1.17;0.90;;;18.70;94.10;;;;;;4974090;28;20019;-40
2024/04/07 01:18:15;;;;;;;1.77;0.82;;;18.70;94.20;;;;;;4973944;28;20034;-40
2024/04/07 01:20:41;;;;;;;1.13;0.90;;;18.70;94.10;;;;;;4973994;28;20470;-40
2024/04/07 01:23:16;;;;;;;2.08;1.10;;;18.70;94.10;;;;;;4973622;28;20110;-40
2024/04/07 01:25:41;;;;;;;1.83;1.08;;;18.70;94.10;;;;;;4973905;28;20101;-40
2024/04/07 01:28:07;;;;;;;1.83;1.00;;;18.70;94.10;;;;;;4973718;28;20566;-40
2024/04/07 01:30:32;;;;;;;3.13;0.90;;;18.70;94.10;;;;;;4973770;28;20026;-41
2024/04/07 01:32:58;;;;;;;3.45;1.13;;;18.70;94.00;;;;;;4973998;28;20466;-40
2024/04/07 01:35:24;;;;;;;1.98;1.17;;;18.70;94.00;;;;;;4973835;28;20521;-40
2024/04/07 01:37:50;;;;;;;1.45;0.90;;;18.70;94.10;;;;;;4973275;28;20105;-40
2024/04/07 01:40:15;;;;;;;1.90;1.05;;;18.70;94.10;;;;;;4973181;28;20030;-40
2024/04/07 01:42:41;;;;;;;1.83;1.00;;;18.70;94.10;;;;;;4973812;28;20081;-40
2024/04/07 01:45:08;;;;;;;1.58;0.98;;;18.70;94.10;;;;;;4973511;28;20031;-40
2024/04/07 01:47:35;;;;;;;1.70;0.90;;;18.70;94.00;;;;;;4973560;28;20106;-40
2024/04/07 01:50:02;;;;;;;2.10;0.95;;;18.70;94.00;;;;;;4973424;28;20050;-40
2024/04/07 01:52:28;;;;;;;1.67;1.23;;;18.70;94.00;;;;;;4973676;28;20014;-41
2024/04/07 01:54:53;;;;;;;1.63;0.82;;;18.70;94.00;;;;;;4973581;28;20023;-41
2024/04/07 01:57:19;;;;;;;3.22;1.20;;;18.70;94.00;;;;;;4973397;28;20471;-40
2024/04/07 01:59:44;;;;;;;1.55;0.95;;;18.70;94.00;;;;;;4973207;28;20038;-40
2024/04/07 02:02:11;;;;;;;1.83;1.10;;;18.70;94.00;;;;;;4973244;28;20376;-40
2024/04/07 02:04:36;;;;;;;3.50;0.73;;;18.60;94.00;;;;;;4973796;28;20102;-40
2024/04/07 02:07:02;;;;;;;3.90;1.00;;;18.70;94.40;;;;;;4972976;28;20054;-40
2024/04/07 02:09:28;;;;;;;4.07;1.13;;;18.60;94.00;;;;;;4972618;28;20038;-41
2024/04/07 02:11:55;;;;;;;2.92;0.93;;;18.70;94.00;;;;;;4973530;28;20426;-40
2024/04/07 02:14:20;;;;;;;1.30;0.82;;;18.70;94.00;;;;;;4974859;28;20101;-40
2024/04/07 02:16:46;;;;;;;2.40;1.20;;;18.70;94.00;;;;;;4977120;28;20486;-40
2024/04/07 02:19:13;;;;;;;2.40;0.93;;;18.70;94.00;;;;;;4976967;28;20035;-41
2024/04/07 02:21:38;;;;;;;1.83;0.90;;;18.60;94.00;;;;;;4977885;28;20057;-40
2024/04/07 02:24:05;;;;;;;1.38;0.60;;;18.60;94.00;;;;;;4977030;28;20443;-40
2024/04/07 02:26:31;;;;;;;3.42;1.00;;;18.60;94.00;;;;;;4976823;28;20077;-40
2024/04/07 02:28:57;;;;;;;1.88;0.90;;;18.60;94.10;;;;;;4977261;28;20033;-40
2024/04/07 02:31:23;;;;;;;1.15;0.90;;;18.60;94.10;;;;;;4977333;28;20390;-40
2024/04/07 02:33:49;;;;;;;2.00;0.90;;;18.70;94.10;;;;;;4977800;28;20019;-40
2024/04/07 02:36:16;;;;;;;1.90;0.95;;;18.60;94.10;;;;;;4977413;28;20050;-40
2024/04/07 02:38:42;;;;;;;1.40;0.90;;;18.60;94.00;;;;;;4976721;28;20029;-40
2024/04/07 02:41:07;;;;;;;1.73;0.95;;;18.60;94.40;;;;;;4977534;28;20457;-41
2024/04/07 02:43:33;;;;;;;1.60;0.95;;;18.60;94.00;;;;;;4977095;28;20115;-40
2024/04/07 02:48:44;;;;;;;1.13;0.80;;;18.60;94.00;;;;;;4977158;28;20041;-40
2024/04/07 02:51:09;;;;;;;1.58;0.70;;;18.60;94.00;;;;;;4977067;28;20038;-40
2024/04/07 02:53:35;;;;;;;1.05;0.70;;;18.60;94.00;;;;;;4976900;28;20023;-40
2024/04/07 02:56:00;;;;;;;1.55;1.00;;;18.60;94.00;;;;;;4976855;28;20442;-40
2024/04/07 02:58:26;;;;;;;1.92;0.90;;;18.60;94.00;;;;;;4976906;28;20089;-40
2024/04/07 03:00:52;;;;;;;1.65;0.80;;;18.70;94.10;;;;;;4976772;28;20078;-41
2024/04/07 03:03:17;;;;;;;1.08;0.80;;;18.70;94.00;;;;;;4976981;28;20050;-40
2024/04/07 03:05:43;;;;;;;2.53;1.20;;;18.70;94.10;;;;;;4976654;28;20445;-40
2024/04/07 03:08:09;;;;;;;2.15;0.90;;;18.60;94.00;;;;;;4976921;28;20505;-40
2024/04/07 03:10:34;;;;;;;1.10;0.70;;;18.60;94.00;;;;;;4975777;28;20027;-40
2024/04/07 03:13:00;;;;;;;0.88;0.80;;;18.60;94.10;;;;;;4976461;28;20359;-40
2024/04/07 03:15:26;;;;;;;1.05;0.80;;;18.60;94.10;;;;;;4976484;28;20031;-40
2024/04/07 03:17:52;;;;;;;1.02;0.80;;;18.70;94.20;;;;;;4976388;28;20030;-40
2024/04/07 03:20:18;;;;;;;1.83;1.02;;;18.60;94.20;;;;;;4976252;28;20446;-40
2024/04/07 03:22:43;;;;;;;1.63;0.80;;;18.60;94.20;;;;;;4976553;28;20050;-40
2024/04/07 03:25:09;;;;;;;2.38;0.90;;;18.60;94.20;;;;;;4976058;28;20034;-40
2024/04/07 03:27:35;;;;;;;1.73;0.82;;;18.60;94.50;;;;;;4976326;28;20379;-40
2024/04/07 03:30:01;;;;;;;1.48;0.90;;;18.60;94.20;;;;;;4976010;28;20433;-40
2024/04/07 03:32:26;;;;;;;1.10;0.80;;;18.60;94.20;;;;;;4975632;28;20023;-40
2024/04/07 03:34:52;;;;;;;1.30;0.80;;;18.60;94.30;;;;;;4975641;28;20474;-40
2024/04/07 03:37:18;;;;;;;1.35;1.00;;;18.60;94.30;;;;;;4975796;28;20022;-40
2024/04/07 03:39:43;;;;;;;2.55;0.95;;;18.60;94.30;;;;;;4975438;28;20410;-40
2024/04/07 03:42:09;;;;;;;1.27;0.98;;;18.60;94.30;;;;;;4975304;28;20331;-40
2024/04/07 03:44:34;;;;;;;1.52;0.90;;;18.60;94.30;;;;;;4975492;28;20034;-40
2024/04/07 03:47:00;;;;;;;1.20;0.85;;;18.60;94.40;;;;;;4975483;28;20035;-40
2024/04/07 03:49:26;;;;;;;0.90;0.80;;;18.60;94.40;;;;;;4975389;28;20106;-40
2024/04/07 03:51:52;;;;;;;1.63;0.90;;;18.60;94.40;;;;;;4975377;28;20049;-40
2024/04/07 03:54:18;;;;;;;1.50;0.70;;;18.50;94.40;;;;;;4975336;28;20023;-40
2024/04/07 03:56:44;;;;;;;1.30;0.80;;;18.60;94.40;;;;;;4975285;28;20483;-40
2024/04/07 03:59:10;;;;;;;1.25;0.80;;;18.50;94.40;;;;;;4975186;28;20125;-41
2024/04/07 04:01:39;;;;;;;1.30;0.93;;;18.50;94.50;;;;;;4975257;28;20033;-40
2024/04/07 04:04:08;;;;;;;1.20;0.80;;;18.50;94.40;;;;;;4975452;28;20022;-40
2024/04/07 04:06:33;;;;;;;1.58;0.70;;;18.50;94.40;;;;;;4975157;28;20027;-40
2024/04/07 04:08:59;;;;;;;1.05;0.70;;;18.50;94.40;;;;;;4974836;28;20379;-40
2024/04/07 04:11:26;;;;;;;1.10;0.80;;;18.50;94.50;;;;;;4974597;28;20027;-39
2024/04/07 04:13:51;;;;;;;1.90;0.88;;;18.50;94.40;;;;;;4974996;28;20051;-40
2024/04/07 04:16:17;;;;;;;1.80;0.77;;;18.50;94.50;;;;;;4974747;28;20084;-40
2024/04/07 04:18:43;;;;;;;0.98;0.73;;;18.50;94.50;;;;;;4974924;28;20033;-40
2024/04/07 04:21:10;;;;;;;1.25;0.80;;;18.50;94.50;;;;;;4975240;28;20026;-40
2024/04/07 04:23:39;;;;;;;3.42;0.80;;;18.50;94.50;;;;;;4975285;28;20363;-40
2024/04/07 04:26:05;;;;;;;1.25;0.73;;;18.50;94.50;;;;;;4975052;28;20095;-40
2024/04/07 04:28:32;;;;;;;1.25;0.70;;;18.50;94.50;;;;;;4975053;28;20023;-40
2024/04/07 04:31:11;;;;;;;1.83;0.65;;;18.40;94.50;;;;;;4974989;28;20038;-40
2024/04/07 04:33:37;;;;;;;1.17;0.90;;;18.50;94.50;;;;;;4975121;28;20033;-40
2024/04/07 04:36:13;;;;;;;1.30;0.82;;;18.40;94.50;;;;;;4974770;28;20019;-40
2024/04/07 04:38:39;;;;;;;1.80;0.80;;;18.40;94.50;;;;;;4974461;28;20069;-41
2024/04/07 04:41:05;;;;;;;1.60;0.80;;;18.40;94.50;;;;;;4974746;28;20031;-40
2024/04/07 04:43:31;;;;;;;1.27;0.80;;;18.40;94.50;;;;;;4974887;28;20068;-40
2024/04/07 04:46:06;;;;;;;0.98;0.80;;;18.40;94.50;;;;;;4974378;28;20457;-40
2024/04/07 04:48:32;;;;;;;1.10;0.70;;;18.40;94.50;;;;;;4973901;28;20510;-40
2024/04/07 04:50:58;;;;;;;1.50;1.02;;;18.50;94.60;;;;;;4974832;28;20435;-40
2024/04/07 04:53:24;;;;;;;1.10;0.80;;;18.40;94.60;;;;;;4974743;28;20058;-40
2024/04/07 04:55:51;;;;;;;2.25;0.80;;;18.40;94.60;;;;;;4974684;28;20576;-41
2024/04/07 04:58:16;;;;;;;1.10;0.70;;;18.40;94.60;;;;;;4974807;28;20078;-40
2024/04/07 05:00:42;;;;;;;0.75;0.70;;;18.40;94.60;;;;;;4974814;28;20026;-40
2024/04/07 05:03:08;;;;;;;0.90;0.70;;;18.40;94.60;;;;;;4974860;28;20085;-40
2024/04/07 05:05:33;;;;;;;1.27;0.70;;;18.40;94.60;;;;;;4975162;28;20041;-40
2024/04/07 05:07:59;;;;;;;1.27;0.73;;;18.40;94.60;;;;;;4975424;28;20031;-40
2024/04/07 05:10:24;;;;;;;1.17;0.70;;;18.40;94.60;;;;;;4974890;28;20292;-40
2024/04/07 05:12:50;;;;;;;0.90;0.50;;;18.40;94.60;;;;;;4976086;28;20537;-40
2024/04/07 05:15:16;;;;;;;0.80;0.70;;;18.30;94.60;;;;;;4980507;28;20083;-40
2024/04/07 05:17:42;;;;;;;1.00;0.73;;;18.30;94.60;;;;;;4986167;28;20019;-41
2024/04/07 05:20:08;;;;;;;1.73;0.75;;;18.40;94.60;;;;;;4985459;28;20117;-40
2024/04/07 05:22:35;;;;;;;0.80;0.63;;;18.30;94.60;;;;;;4985845;28;20027;-40
2024/04/07 05:25:01;;;;;;;1.00;0.70;;;18.30;94.60;;;;;;4979820;28;20027;-40
2024/04/07 05:27:26;;;;;;;1.77;0.80;;;18.30;94.60;;;;;;4974127;28;20027;-40
2024/04/07 05:29:52;;;;;;;1.58;0.70;;;18.30;94.60;;;;;;4974268;28;20486;-41
2024/04/07 05:32:17;;;;;;;1.40;0.85;;;18.40;94.70;;;;;;4974314;28;20078;-40
2024/04/07 05:34:48;;;;;;;1.33;0.77;;;18.30;94.70;;;;;;4974108;28;20019;-40
2024/04/07 05:37:14;;;;;;;1.15;0.77;;;18.30;94.70;;;;;;4973548;28;20485;-40
2024/04/07 05:39:48;;;;;;;1.27;0.88;;;18.30;94.80;;;;;;4972916;28;20042;-40
2024/04/07 05:42:14;;;;;;;0.90;0.60;;;18.30;94.80;;;;;;4973295;28;20439;-40
2024/04/07 05:44:39;;;;;;;3.25;0.80;;;18.30;94.80;;;;;;4973389;28;20105;-40
2024/04/07 05:47:05;;;;;;;1.63;0.80;;;18.30;94.80;;;;;;4973187;28;20027;-40
2024/04/07 05:49:33;;;;;;;1.67;0.60;;;18.30;94.80;;;;;;4972777;28;20402;-40
2024/04/07 05:51:59;;;;;;;1.38;0.68;;;18.30;94.80;;;;;;4973043;28;20019;-40
2024/04/07 05:54:27;;;;;;;0.88;0.70;;;18.30;94.80;;;;;;4973099;28;20030;-40
2024/04/07 05:56:53;;;;;;;2.55;0.82;;;18.30;94.80;;;;;;4973144;28;20099;-40
2024/04/07 05:59:19;;;;;;;0.90;0.75;;;18.30;94.90;;;;;;4973232;28;20394;-40
2024/04/07 06:01:45;;;;;;;0.85;0.75;;;18.30;94.80;;;;;;4973053;28;20031;-40
2024/04/07 06:04:11;;;;;;;1.58;0.90;;;18.20;94.80;;;;;;4973050;28;20196;-40
2024/04/07 06:06:36;;;;;;;1.15;1.00;;;18.30;94.80;;;;;;4973269;28;20029;-40
2024/04/07 06:09:03;;;;;;;1.33;0.80;;;18.30;94.80;;;;;;4973203;28;20117;-40
2024/04/07 06:11:29;;;;;;;1.10;0.75;;;18.20;94.80;;;;;;4973212;28;20026;-41
2024/04/07 06:13:55;;;;;;;1.85;0.60;;;18.30;94.80;;;;;;4973630;28;20023;-40
2024/04/07 06:16:21;;;;;;;1.40;0.80;;;18.20;94.80;;;;;;4973305;28;20312;-40
2024/04/07 06:18:47;;;;;;;1.05;0.68;;;18.20;94.80;;;;;;4972688;28;20023;-40
2024/04/07 06:21:13;;;;;;;0.75;0.68;;;18.30;94.80;;;;;;4973178;28;20023;-40
2024/04/07 06:23:41;;;;;;;1.48;0.70;;;18.30;94.80;;;;;;4973254;28;20447;-40
2024/04/07 06:26:06;;;;;;;2.42;0.80;;;18.30;94.80;;;;;;4973386;28;20517;-40
2024/04/07 06:28:32;;;;;;;0.70;0.60;;;18.30;94.80;;;;;;4972842;28;20027;-40
2024/04/07 06:30:58;;;;;;;1.55;0.75;;;18.30;94.80;;;;;;4973123;28;20069;-41
2024/04/07 06:33:26;;;;;;;1.20;0.60;;;18.20;94.80;;;;;;4973305;28;20027;-40
2024/04/07 06:35:52;;;;;;;2.20;0.88;;;18.20;94.80;;;;;;4973054;28;20022;-40
2024/04/07 06:38:18;;;;;;;0.90;0.60;;;18.20;94.80;;;;;;4973222;28;20030;-40
2024/04/07 06:40:44;;;;;;;0.90;0.80;;;18.20;94.80;;;;;;4973397;28;20398;-40
2024/04/07 06:43:10;;;;;;;1.65;0.90;;;18.20;94.80;;;;;;4973381;28;20085;-40
2024/04/07 06:45:35;;;;;;;1.00;0.70;;;18.20;94.80;;;;;;4973467;28;20058;-40
2024/04/07 06:48:01;;;;;;;0.98;0.57;;;18.20;94.80;;;;;;4972516;28;20045;-40
2024/04/07 06:50:26;;;;;;;3.08;0.80;;;18.20;94.90;;;;;;4973061;28;20099;-40
2024/04/07 06:52:52;;;;;;;1.58;0.82;;;18.20;94.90;;;;;;4973401;28;20493;-41
2024/04/07 06:55:19;;;;;;;2.25;0.70;;;18.20;94.90;;;;;;4973305;28;20023;-40
2024/04/07 06:57:45;;;;;;;1.45;0.80;;;18.20;94.90;;;;;;4973515;28;20026;-41
2024/04/07 07:00:12;;;;;;;1.17;0.80;;;18.20;95.00;;;;;;4973958;28;20031;-40
2024/04/07 07:02:38;;;;;;;1.52;0.73;;;18.20;95.00;;;;;;4976750;28;20026;-41
2024/04/07 07:05:04;;;;;;;1.15;0.70;;;18.20;95.00;;;;;;4976579;28;20372;-41
2024/04/07 07:07:30;;;;;;;0.95;0.70;;;18.20;95.00;;;;;;4976777;28;20042;-40
2024/04/07 07:09:57;;;;;;;1.23;0.60;;;18.20;95.00;;;;;;4976196;28;20023;-40
2024/04/07 07:12:23;;;;;;;2.63;0.68;;;18.20;95.00;;;;;;4975432;28;20110;-40
2024/04/07 07:14:49;;;;;;;1.73;0.80;;;18.20;95.00;;;;;;4976683;28;20035;-40
2024/04/07 07:17:15;;;;;;;1.48;0.68;;;18.20;95.00;;;;;;4976130;28;20042;-40
2024/04/07 07:19:41;;;;;;;1.40;0.63;;;18.20;95.00;;;;;;4975910;28;20295;-40
2024/04/07 07:22:06;;;;;;;1.33;0.70;;;18.20;95.00;;;;;;4976397;28;20033;-40
2024/04/07 07:24:32;;;;;;;1.13;0.63;;;18.20;95.00;;;;;;4976342;28;20475;-41
2024/04/07 07:26:58;;;;;;;1.25;0.80;;;18.20;95.00;;;;;;4975342;28;20026;-40
2024/04/07 07:29:23;;;;;;;0.68;0.60;;;18.20;95.00;;;;;;4976087;28;20082;-40
2024/04/07 07:31:49;;;;;;;1.33;0.70;;;18.30;95.00;;;;;;4976643;28;20019;-40
2024/04/07 07:34:15;;;;;;;1.70;0.80;;;18.30;95.00;;;;;;4976071;28;20046;-40
2024/04/07 07:36:41;;;;;;;1.25;0.73;;;18.30;95.00;;;;;;4975651;28;20027;-40
2024/04/07 07:39:07;;;;;;;0.75;0.65;;;18.30;95.00;;;;;;4976080;28;20035;-40
2024/04/07 07:41:32;;;;;;;0.93;0.63;;;18.30;95.00;;;;;;4975431;28;20031;-40
2024/04/07 07:43:58;;;;;;;1.42;0.98;;;18.30;94.90;;;;;;4975695;28;20033;-40
2024/04/07 07:46:24;;;;;;;1.38;0.80;;;18.40;94.90;;;;;;4975780;28;20070;-41
2024/04/07 07:48:49;;;;;;;0.82;0.60;;;18.30;94.90;;;;;;4976356;28;20038;-39
2024/04/07 07:51:17;;;;;;;0.85;0.73;;;18.40;94.90;;;;;;4975871;28;20031;-41
2024/04/07 07:53:42;;;;;;;3.15;0.65;;;18.40;94.90;;;;;;4976349;28;20437;-40
2024/04/07 07:56:09;;;;;;;1.63;0.70;;;18.40;94.80;;;;;;4976414;28;20035;-40
2024/04/07 07:58:36;;;;;;;0.77;0.60;;;18.40;94.90;;;;;;4975680;28;20022;-40
2024/04/07 08:01:02;;;;;;;1.08;0.70;;;18.40;94.80;;;;;;4975398;28;20023;-40
2024/04/07 08:03:28;;;;;;;1.35;0.88;;;18.50;94.80;;;;;;4975752;28;20026;-41
2024/04/07 08:05:54;;;;;;;1.13;0.70;;;18.50;94.80;;;;;;4975457;28;20047;-40
2024/04/07 08:08:20;;;;;;;0.80;0.60;;;18.50;94.80;;;;;;4977075;28;20023;-39
2024/04/07 08:10:46;;;;;;;2.33;0.70;;;18.50;94.80;;;;;;4978065;28;20109;-41
2024/04/07 08:13:13;;;;;;;0.95;0.60;;;18.50;94.70;;;;;;4976388;28;20031;-41
2024/04/07 08:15:39;;;;;;;1.05;0.73;;;18.60;94.70;;;;;;4975363;28;20030;-41
2024/04/07 08:18:04;;;;;;;0.90;0.70;;;18.60;94.70;;;;;;4976156;28;20019;-39
2024/04/07 08:20:30;;;;;;;0.95;0.60;;;18.60;94.70;;;;;;4975508;28;20452;-40
2024/04/07 08:22:56;;;;;;;0.90;0.77;;;18.60;94.70;;;;;;4975044;28;20039;-39
2024/04/07 08:25:21;;;;;;;1.67;0.68;;;18.60;94.70;;;;;;4975013;28;20490;-39
2024/04/07 08:27:47;;;;;;;1.65;0.70;;;18.60;94.70;;;;;;4974839;28;20027;-39
2024/04/07 08:30:13;;;;;;;1.23;0.80;;;18.60;94.70;;;;;;4974285;28;20027;-39
2024/04/07 08:32:38;;;;;;;0.82;0.55;;;18.60;94.60;;;;;;4975370;28;20031;-40
2024/04/07 08:35:04;;;;;;;1.45;0.57;;;18.60;94.60;;;;;;4974741;28;20078;-40
2024/04/07 08:37:30;;;;;;;0.90;0.70;;;18.70;94.60;;;;;;4974938;28;20565;-40
2024/04/07 08:39:55;;;;;;;2.15;0.70;;;18.70;94.60;;;;;;4974764;28;20034;-40
2024/04/07 08:42:23;;;;;;;0.98;0.60;;;18.70;94.60;;;;;;4974894;28;20110;-40
2024/04/07 08:44:50;;;;;;;1.70;0.70;;;18.70;94.60;;;;;;4974197;28;20031;-40
2024/04/07 08:47:17;;;;;;;0.75;0.60;;;18.70;94.60;;;;;;4974409;28;20041;-40
2024/04/07 08:49:43;;;;;;;3.78;0.73;;;18.70;94.50;;;;;;4974640;28;20062;-41
2024/04/07 08:52:10;;;;;;;1.17;0.60;;;18.80;94.50;;;;;;4974294;28;20390;-40
2024/04/07 08:54:37;;;;;;;1.05;0.68;;;18.80;94.50;;;;;;4974461;28;20114;-41
2024/04/07 08:57:08;;;;;;;0.80;0.60;;;18.80;94.50;;;;;;4974346;28;20506;-40
2024/04/07 08:59:35;;;;;;;1.63;0.60;;;18.80;94.40;;;;;;4973937;28;20375;-40
2024/04/07 09:02:03;;;;;;;0.93;0.60;;;18.90;94.40;;;;;;4974041;28;20039;-41
2024/04/07 09:04:32;;;;;;;1.20;0.70;;;18.90;94.30;;;;;;4973978;28;20018;-41
2024/04/07 09:07:05;;;;;;;1.25;0.60;;;18.90;94.30;;;;;;4973916;28;20027;-41
2024/04/07 09:09:31;;;;;;;1.38;0.70;;;19.00;94.30;;;;;;4974278;28;20073;-41
2024/04/07 09:11:59;;;;;;;0.90;0.60;;;19.00;94.20;;;;;;4974025;28;20086;-41
2024/04/07 09:14:26;;;;;;;3.42;0.77;;;19.10;94.20;;;;;;4974120;28;20150;-41
2024/04/07 09:17:06;;;;;;;1.63;0.80;;;19.10;94.20;;;;;;4973669;28;20506;-42
2024/04/07 09:19:33;;;;;;;0.82;0.60;;;19.10;94.10;;;;;;4973670;28;20042;-41
2024/04/07 09:21:58;;;;;;;1.10;0.65;;;19.10;94.10;;;;;;4973565;28;20106;-41
2024/04/07 09:24:25;;;;;;;1.10;0.52;;;19.20;94.10;;;;;;4973383;28;20110;-40
2024/04/07 09:26:59;;;;;;;0.90;0.70;;;19.20;94.00;;;;;;4972430;28;20047;-41
2024/04/07 09:29:27;;;;;;;1.00;0.68;;;19.20;94.00;;;;;;4973665;28;20027;-40
2024/04/07 09:31:53;;;;;;;1.25;0.65;;;19.20;94.00;;;;;;4973564;28;20026;-40
2024/04/07 09:34:18;;;;;;;1.33;0.52;;;19.30;94.00;;;;;;4974053;28;20027;-40
2024/04/07 09:36:44;;;;;;;2.35;0.73;;;19.30;94.00;;;;;;4973711;28;20019;-41
2024/04/07 09:39:11;;;;;;;1.17;0.60;;;19.30;93.90;;;;;;4973576;28;20035;-41
2024/04/07 09:41:37;;;;;;;1.13;0.88;;;19.30;93.90;;;;;;4973886;28;20101;-40
2024/04/07 09:44:06;;;;;;;1.67;0.80;;;19.30;93.90;;;;;;4973591;28;20437;-41
2024/04/07 09:46:38;;;;;;;3.13;0.60;;;19.30;93.90;;;;;;4973619;28;20030;-40
2024/04/07 09:49:09;;;;;;;1.02;0.70;;;19.30;93.90;;;;;;4973223;28;20475;-41
2024/04/07 09:51:44;;;;;;;1.13;0.75;;;19.30;93.90;;;;;;4973319;28;20027;-40
2024/04/07 09:54:25;;;;;;;1.30;0.60;;;19.40;93.90;;;;;;4973379;28;20031;-40
2024/04/07 09:56:52;;;;;;;1.48;0.70;;;19.40;93.90;;;;;;4973281;28;20109;-41
2024/04/07 09:59:18;;;;;;;0.90;0.65;;;19.50;93.80;;;;;;4973236;28;20486;-40
2024/04/07 10:01:44;;;;;;;3.22;0.60;;;19.50;93.80;;;;;;4973085;28;20031;-40
2024/04/07 10:04:11;;;;;;;2.17;0.60;;;19.50;93.80;;;;;;4973315;28;20023;-41
2024/04/07 10:06:38;;;;;;;2.58;0.70;;;19.50;93.80;;;;;;4973123;28;20115;-40
2024/04/07 10:09:05;;;;;;;3.97;0.60;;;19.60;93.80;;;;;;4972980;28;20027;-41
2024/04/07 10:11:30;;;;;;;0.65;0.40;;;19.60;93.70;;;;;;4973151;28;20033;-40
2024/04/07 10:13:56;;;;;;;0.85;0.60;;;19.60;93.70;;;;;;4973049;28;20101;-41
2024/04/07 10:16:26;;;;;;;2.55;0.90;;;19.70;93.60;;;;;;4973193;28;20031;-42
2024/04/07 10:18:51;;;;;;;1.73;0.65;;;19.70;93.60;;;;;;4972873;28;20027;-40
2024/04/07 10:21:17;;;;;;;2.45;0.60;;;19.80;93.60;;;;;;4973405;28;20023;-41
2024/04/07 10:23:43;;;;;;;3.17;0.77;;;19.80;93.50;;;;;;4972791;28;20082;-41
2024/04/07 10:26:28;;;;;;;1.17;0.55;;;19.80;93.40;;;;;;4972696;28;20045;-41
2024/04/07 10:28:58;;;;;;;3.28;0.80;;;19.90;93.40;;;;;;4972399;28;20471;-40
2024/04/07 10:31:32;;;;;;;2.38;0.70;;;20.00;93.30;;;;;;4972831;28;20453;-43
2024/04/07 10:33:58;;;;;;;1.08;0.60;;;20.10;93.30;;;;;;4972763;28;20031;-41
2024/04/07 10:36:25;;;;;;;1.38;0.70;;;20.20;93.20;;;;;;4976345;28;20125;-40
2024/04/07 10:38:57;;;;;;;1.45;0.60;;;20.20;93.10;;;;;;4976436;28;20545;-40
2024/04/07 10:41:26;;;;;;;1.58;0.70;;;20.20;93.00;;;;;;4976706;28;20023;-40
2024/04/07 10:43:52;;;;;;;1.17;0.63;;;20.30;93.00;;;;;;4976654;28;20419;-41
2024/04/07 10:46:20;;;;;;;2.67;0.52;;;20.30;92.90;;;;;;4976288;28;20501;-41
2024/04/07 10:48:47;;;;;;;1.40;0.70;;;20.40;92.90;;;;;;4976360;28;20331;-41
2024/04/07 10:51:13;;;;;;;1.85;0.60;;;20.40;92.80;;;;;;4976529;28;20042;-41
2024/04/07 10:54:20;;;;;;;2.10;0.60;;;20.50;92.80;;;;;;4976478;28;20050;-40
2024/04/07 10:56:46;;;;;;;2.38;0.55;;;20.50;92.80;;;;;;4955036;29;20038;-40
2024/04/07 10:59:13;;;;;;;4.20;0.90;;;20.60;92.70;;;;;;4954898;29;20035;-40
2024/04/07 11:01:39;;;;;;;5.05;0.68;;;20.60;92.80;;;;;;4965779;28;20045;-40
2024/04/07 11:04:05;;;;;;;2.42;0.68;;;20.60;92.60;;;;;;4980123;28;20026;-40
2024/04/07 11:06:30;;;;;;;2.15;0.60;;;20.60;92.60;;;;;;4982882;28;20023;-40
2024/04/07 11:08:57;;;;;;;1.05;0.60;;;20.60;92.60;;;;;;4980688;28;20039;-40
2024/04/07 11:11:23;;;;;;;2.03;0.88;;;20.70;92.50;;;;;;4980829;28;20118;-40
2024/04/07 11:13:49;;;;;;;1.25;0.57;;;20.70;92.50;;;;;;4977757;28;20487;-40
2024/04/07 11:16:15;;;;;;;1.80;0.60;;;20.80;92.40;;;;;;4976110;28;20027;-41
2024/04/07 11:18:41;;;;;;;1.67;0.65;;;20.80;92.40;;;;;;4975593;28;20019;-40
2024/04/07 11:21:07;;;;;;;1.70;0.65;;;20.80;92.40;;;;;;4976062;28;20041;-41
2024/04/07 11:23:33;;;;;;;2.10;0.82;;;20.90;92.30;;;;;;4976164;28;20035;-40
2024/04/07 11:25:59;;;;;;;1.70;0.70;;;20.90;92.30;;;;;;4975833;28;20034;-40
2024/04/07 11:28:25;;;;;;;3.47;0.80;;;21.00;92.20;;;;;;4975608;28;20066;-41
2024/04/07 11:30:54;;;;;;;1.58;0.60;;;21.00;92.20;;;;;;4975673;28;20069;-41
2024/04/07 11:33:20;;;;;;;2.42;0.80;;;21.00;92.10;;;;;;4975617;28;20041;-40
2024/04/07 11:35:46;;;;;;;3.83;0.77;;;21.10;92.10;;;;;;4975738;28;20502;-40
2024/04/07 11:38:12;;;;;;;1.88;0.63;;;21.10;92.00;;;;;;4974355;28;20030;-40
2024/04/07 11:40:39;;;;;;;2.35;0.80;;;21.10;92.10;;;;;;4975477;28;20042;-40
2024/04/07 11:43:06;;;;;;;2.42;0.70;;;21.10;92.00;;;;;;4975308;28;20371;-41
2024/04/07 11:45:32;;;;;;;3.75;0.80;;;21.20;92.00;;;;;;4975075;28;20023;-40
2024/04/07 11:47:59;;;;;;;4.10;1.10;;;21.20;92.20;;;;;;4975377;28;20166;-40
2024/04/07 11:50:25;;;;;;;2.22;0.80;;;21.20;92.00;;;;;;4975274;28;20037;-41
2024/04/07 11:52:51;;;;;;;1.77;0.60;;;21.20;91.90;;;;;;4975528;28;20027;-41
2024/04/07 11:55:16;;;;;;;3.25;0.82;;;21.30;91.90;;;;;;4975219;28;20390;-40
2024/04/07 11:57:42;;;;;;;3.28;0.70;;;21.30;91.90;;;;;;4975294;28;20019;-40
2024/04/07 12:00:08;;;;;;;2.60;0.80;;;21.30;92.00;;;;;;4974038;28;20413;-40
2024/04/07 12:02:34;;;;;;;1.65;0.52;;;21.30;92.00;;;;;;4975086;28;20062;-41
2024/04/07 12:05:02;;;;;;;2.22;0.60;;;21.30;91.90;;;;;;4975089;28;20073;-41
2024/04/07 12:07:28;;;;;;;2.83;0.80;;;21.30;91.90;;;;;;4975164;28;20521;-40
2024/04/07 12:09:54;;;;;;;3.22;0.70;;;21.40;91.90;;;;;;4974745;28;20034;-41
2024/04/07 12:12:19;;;;;;;2.35;0.98;;;21.40;91.90;;;;;;4975159;28;20027;-40
2024/04/07 12:14:45;;;;;;;2.72;0.90;;;21.40;91.80;;;;;;4974548;28;20384;-41
2024/04/07 12:17:11;;;;;;;1.63;0.70;;;21.40;92.10;;;;;;4974927;28;20074;-40
2024/04/07 12:19:36;;;;;;;4.95;1.10;;;21.40;91.70;;;;;;4973485;28;20045;-40
2024/04/07 12:22:07;;;;;;;3.38;0.90;;;21.40;91.70;;;;;;4974755;28;20548;-40
2024/04/07 12:24:33;;;;;;;3.33;1.02;;;21.50;91.70;;;;;;4974833;28;20025;-40
2024/04/07 12:26:59;;;;;;;2.95;0.75;;;21.50;91.70;;;;;;4974667;28;20030;-41
2024/04/07 12:29:24;;;;;;;3.13;0.80;;;21.50;91.70;;;;;;4974387;28;20034;-40
2024/04/07 12:31:51;;;;;;;2.10;0.70;;;21.50;91.70;;;;;;4974686;28;20022;-40
2024/04/07 12:34:17;;;;;;;3.08;1.17;;;21.60;91.70;;;;;;4974889;28;20026;-40
2024/04/07 12:36:43;;;;;;;3.45;1.00;;;21.60;91.70;;;;;;4974751;28;20578;-40
2024/04/07 12:39:09;;;;;;;1.83;0.82;;;21.50;91.70;;;;;;4974514;28;20498;-41
2024/04/07 12:41:35;;;;;;;3.20;0.80;;;21.50;91.70;;;;;;4974492;28;20023;-41
2024/04/07 12:44:01;;;;;;;2.08;0.80;;;21.50;91.70;;;;;;4974316;28;20055;-40
2024/04/07 12:46:26;;;;;;;3.03;0.73;;;21.50;91.70;;;;;;4974645;28;20058;-40